Time;durP1;ratioP1;P1;durP2;ratioP2;P2;SDS_P1;SDS_P2;PMS_P1;PMS_P2;Temp;Humidity;BMP_temperature;BMP_pressure;BME280_temperature;BME280_humidity;BME280_pressure;Samples;Min_cycle;Max_cycle;Signal;HPM_P1;HPM_P2
2023/03/14 00:00:58;;;;;;;33.38;4.75;;;9.10;99.90;;;;;;5153422;27;19926;-65
2023/03/14 00:03:24;;;;;;;31.02;5.40;;;9.30;99.90;;;;;;5153386;27;20084;-64
2023/03/14 00:05:50;;;;;;;31.40;4.97;;;10.00;99.90;;;;;;5135163;27;20046;-65
2023/03/14 00:08:15;;;;;;;35.60;5.68;;;10.00;99.90;;;;;;5153246;27;20068;-65
2023/03/14 00:10:41;;;;;;;26.95;4.50;;;9.40;99.90;;;;;;5153369;27;20042;-65
2023/03/14 00:13:07;;;;;;;31.20;5.28;;;9.70;99.90;;;;;;5153540;27;20421;-65
2023/03/14 00:15:34;;;;;;;28.55;5.47;;;8.90;99.90;;;;;;5134939;27;20103;-66
2023/03/14 00:18:00;;;;;;;31.52;5.35;;;9.00;99.90;;;;;;5152910;27;20521;-64
2023/03/14 00:20:27;;;;;;;31.83;5.70;;;10.20;99.90;;;;;;5153456;27;20053;-66
2023/03/14 00:22:52;;;;;;;33.60;4.88;;;9.60;99.90;;;;;;5153176;27;20505;-65
2023/03/14 00:25:18;;;;;;;35.80;6.13;;;10.10;99.90;;;;;;5152837;27;20050;-65
2023/03/14 00:27:44;;;;;;;33.80;6.00;;;9.20;99.90;;;;;;5153226;27;20461;-65
2023/03/14 00:30:10;;;;;;;26.23;5.63;;;9.70;99.90;;;;;;5153091;27;20157;-65
2023/03/14 00:32:36;;;;;;;24.63;5.43;;;10.10;99.90;;;;;;5153384;27;20047;-65
2023/03/14 00:35:03;;;;;;;30.33;5.90;;;9.10;99.90;;;;;;5153466;27;20053;-67
2023/03/14 00:37:29;;;;;;;25.85;5.22;;;8.80;99.90;;;;;;5153054;27;20069;-65
2023/03/14 00:39:54;;;;;;;28.52;5.75;;;9.00;99.90;;;;;;5153195;27;20049;-65
2023/03/14 00:42:20;;;;;;;31.13;6.53;;;10.40;99.90;;;;;;5153026;27;20051;-65
2023/03/14 00:44:46;;;;;;;33.13;5.20;;;9.00;99.90;;;;;;5152750;27;20389;-66
2023/03/14 00:47:12;;;;;;;29.98;5.00;;;9.60;99.90;;;;;;5153034;27;20069;-66
2023/03/14 00:49:37;;;;;;;32.05;4.97;;;10.20;99.90;;;;;;5156260;27;20074;-65
2023/03/14 00:52:03;;;;;;;27.58;5.22;;;9.40;99.90;;;;;;5156884;27;20057;-65
2023/03/14 00:54:29;;;;;;;30.13;5.32;;;9.60;99.90;;;;;;5157049;27;20051;-64
2023/03/14 00:56:55;;;;;;;24.48;4.80;;;10.10;99.90;;;;;;5157275;27;20039;-64
2023/03/14 00:59:21;;;;;;;23.20;5.07;;;8.90;99.90;;;;;;5156946;27;20051;-66
2023/03/14 01:01:47;;;;;;;30.50;5.45;;;10.50;99.90;;;;;;5156746;27;20058;-66
2023/03/14 01:04:12;;;;;;;25.08;4.90;;;9.50;99.90;;;;;;5156852;27;20133;-65
2023/03/14 01:06:39;;;;;;;25.85;4.38;;;9.20;99.90;;;;;;5157232;27;20035;-65
2023/03/14 01:09:05;;;;;;;20.30;3.90;;;9.20;99.90;;;;;;5156834;27;20103;-65
2023/03/14 01:11:33;;;;;;;21.40;4.55;;;10.00;99.90;;;;;;5156740;27;20043;-65
2023/03/14 01:14:00;;;;;;;25.55;4.80;;;10.30;99.90;;;;;;5156777;27;20099;-65
2023/03/14 01:16:28;;;;;;;31.83;5.03;;;10.00;99.90;;;;;;5156913;27;20057;-65
2023/03/14 01:18:53;;;;;;;23.88;5.18;;;9.30;99.90;;;;;;5138441;27;20053;-65
2023/03/14 01:21:28;;;;;;;24.63;4.60;;;10.10;99.90;;;;;;5156837;27;20129;-65
2023/03/14 01:23:56;;;;;;;25.40;5.53;;;8.90;99.90;;;;;;5156789;27;20046;-65
2023/03/14 01:26:24;;;;;;;25.40;4.40;;;10.30;99.90;;;;;;5156310;27;20054;-66
2023/03/14 01:28:52;;;;;;;22.70;4.35;;;9.40;99.90;;;;;;5156650;27;20131;-65
2023/03/14 01:31:18;;;;;;;22.63;4.20;;;9.10;99.90;;;;;;5156555;27;20042;-65
2023/03/14 01:33:44;;;;;;;21.67;4.10;;;8.90;99.90;;;;;;5156601;27;20043;-65
2023/03/14 01:36:11;;;;;;;29.35;4.63;;;9.20;99.90;;;;;;5156533;27;20451;-65
2023/03/14 01:38:39;;;;;;;26.10;3.90;;;10.10;99.90;;;;;;5156296;27;20058;-65
2023/03/14 01:41:05;;;;;;;24.13;5.07;;;9.00;99.90;;;;;;5138018;27;20051;-65
2023/03/14 01:43:31;;;;;;;;;;;10.50;99.90;;;;;;5156694;27;20081;-65
2023/03/14 01:46:00;;;;;;;19.58;4.00;;;9.70;99.90;;;;;;5156219;27;20015;-64
2023/03/14 01:48:30;;;;;;;21.42;4.32;;;10.70;99.90;;;;;;5156126;27;20038;-65
2023/03/14 01:50:57;;;;;;;27.20;4.72;;;9.90;99.90;;;;;;5156525;27;20095;-65
2023/03/14 01:53:23;;;;;;;20.48;4.10;;;9.30;99.90;;;;;;5156159;27;20455;-66
2023/03/14 01:55:52;;;;;;;25.00;4.35;;;9.10;99.90;;;;;;5156157;27;20039;-65
2023/03/14 01:58:19;;;;;;;21.48;4.40;;;10.60;99.90;;;;;;5155958;27;20039;-66
2023/03/14 02:00:45;;;;;;;22.30;4.40;;;9.50;99.90;;;;;;5155419;27;20129;-66
2023/03/14 02:03:15;;;;;;;24.40;4.75;;;9.10;99.90;;;;;;5155886;27;20126;-65
2023/03/14 02:05:42;;;;;;;31.05;4.60;;;8.80;99.90;;;;;;5137168;27;20452;-65
2023/03/14 02:08:12;;;;;;;25.05;4.28;;;8.90;99.90;;;;;;5155771;27;20091;-66
2023/03/14 02:10:45;;;;;;;27.75;4.18;;;8.30;99.90;;;;;;5155813;27;20096;-65
2023/03/14 02:13:11;;;;;;;29.60;4.20;;;9.40;99.90;;;;;;5155747;27;20042;-65
2023/03/14 02:15:38;;;;;;;19.42;4.10;;;8.40;99.90;;;;;;5155768;27;20446;-65
2023/03/14 02:18:05;;;;;;;21.20;4.15;;;8.60;99.90;;;;;;5137123;27;20104;-65
2023/03/14 02:21:08;;;;;;;21.25;4.13;;;8.70;99.90;;;;;;5155604;27;20120;-66
2023/03/14 02:23:40;;;;;;;22.40;4.40;;;8.40;99.90;;;;;;5155481;27;20095;-66
2023/03/14 02:26:20;;;;;;;23.45;3.90;;;9.20;99.90;;;;;;5155587;27;20120;-65
2023/03/14 02:28:46;;;;;;;27.00;3.70;;;8.50;99.90;;;;;;5155612;27;20185;-65
2023/03/14 02:31:12;;;;;;;25.85;3.63;;;9.70;99.90;;;;;;5136737;27;20130;-66
2023/03/14 02:33:38;;;;;;;34.08;5.53;;;8.40;99.90;;;;;;5155390;27;20046;-65
2023/03/14 02:36:07;;;;;;;24.83;4.22;;;8.00;99.90;;;;;;5155540;27;20039;-65
2023/03/14 02:39:00;;;;;;;29.67;5.82;;;10.20;99.90;;;;;;5155276;27;20492;-66
2023/03/14 02:41:26;;;;;;;24.00;3.97;;;7.60;99.90;;;;;;5155503;27;20498;-65
2023/03/14 02:43:52;;;;;;;26.67;4.57;;;7.90;99.90;;;;;;5155095;27;20060;-66
2023/03/14 02:46:20;;;;;;;24.70;4.57;;;10.50;99.90;;;;;;5155230;27;20050;-66
2023/03/14 02:48:53;;;;;;;28.80;4.63;;;11.00;99.90;;;;;;5136902;27;20404;-65
2023/03/14 02:51:21;;;;;;;28.45;5.30;;;6.60;99.90;;;;;;5155327;27;20051;-66
2023/03/14 02:53:46;;;;;;;33.55;5.05;;;10.70;99.90;;;;;;5155516;27;20443;-66
2023/03/14 02:56:12;;;;;;;30.70;4.70;;;10.90;99.90;;;;;;5155259;27;20042;-66
2023/03/14 02:58:38;;;;;;;20.90;4.32;;;8.10;99.90;;;;;;5155150;27;20048;-67
2023/03/14 03:01:05;;;;;;;28.30;4.95;;;10.80;99.90;;;;;;5155107;27;20504;-66
2023/03/14 03:03:30;;;;;;;25.88;4.50;;;10.10;99.90;;;;;;5155003;27;20043;-66
2023/03/14 03:05:56;;;;;;;24.55;5.22;;;7.30;99.90;;;;;;5136859;27;20134;-66
2023/03/14 03:08:24;;;;;;;21.33;4.38;;;7.30;99.90;;;;;;5155172;27;20368;-65
2023/03/14 03:10:50;;;;;;;26.33;5.22;;;7.50;99.90;;;;;;5154022;27;20122;-65
2023/03/14 03:13:16;;;;;;;22.45;5.00;;;8.10;99.90;;;;;;5136377;27;20129;-65
2023/03/14 03:15:42;;;;;;;25.85;5.63;;;6.80;99.90;;;;;;5154784;27;20545;-66
2023/03/14 03:18:08;;;;;;;33.80;5.63;;;9.10;99.90;;;;;;5136379;27;20448;-65
2023/03/14 03:20:34;;;;;;;30.13;6.97;;;9.80;99.90;;;;;;5154400;27;20046;-66
2023/03/14 03:23:00;;;;;;;28.40;6.07;;;9.80;99.90;;;;;;5154679;27;20054;-67
2023/03/14 03:25:27;;;;;;;30.88;6.38;;;10.70;99.90;;;;;;5154574;27;20051;-66
2023/03/14 03:27:53;;;;;;;36.65;7.97;;;9.70;99.90;;;;;;5153898;27;20594;-65
2023/03/14 03:30:19;;;;;;;36.80;8.05;;;8.30;99.90;;;;;;5154379;27;20057;-66
2023/03/14 03:32:45;;;;;;;28.67;8.80;;;11.10;99.90;;;;;;5154476;27;20058;-67
2023/03/14 03:35:10;;;;;;;31.10;8.18;;;7.70;99.90;;;;;;5154429;27;20039;-66
2023/03/14 03:37:37;;;;;;;29.20;7.93;;;10.30;99.90;;;;;;5136048;27;20500;-66
2023/03/14 03:40:06;;;;;;;34.50;7.95;;;7.20;99.90;;;;;;5136025;27;20133;-66
2023/03/14 03:42:33;;;;;;;35.58;7.72;;;10.10;99.90;;;;;;5154264;27;20444;-66
2023/03/14 03:45:00;;;;;;;33.83;7.68;;;6.60;99.90;;;;;;5154136;27;20502;-68
2023/03/14 03:47:25;;;;;;;32.00;7.28;;;7.70;99.90;;;;;;5154048;27;20047;-67
2023/03/14 03:49:51;;;;;;;30.30;7.20;;;8.30;99.90;;;;;;5154109;27;20375;-67
2023/03/14 03:52:17;;;;;;;38.92;8.00;;;10.60;99.90;;;;;;5154040;27;20056;-66
2023/03/14 03:54:43;;;;;;;40.42;8.32;;;10.60;99.90;;;;;;5154035;27;20068;-67
2023/03/14 03:57:08;;;;;;;38.47;8.73;;;10.50;99.90;;;;;;5135555;27;20488;-66
2023/03/14 03:59:34;;;;;;;49.35;8.50;;;10.60;99.90;;;;;;5135668;27;20058;-67
2023/03/14 04:02:00;;;;;;;32.17;7.55;;;10.30;99.90;;;;;;5153839;27;20047;-67
2023/03/14 04:04:25;;;;;;;40.83;9.23;;;7.50;99.90;;;;;;5135432;27;20088;-66
2023/03/14 04:06:51;;;;;;;41.28;7.70;;;8.50;99.90;;;;;;5153670;27;20593;-67
2023/03/14 04:09:17;;;;;;;36.65;8.05;;;10.30;99.90;;;;;;5153772;27;20047;-68
2023/03/14 04:11:43;;;;;;;40.67;8.07;;;9.00;99.90;;;;;;5153390;27;20042;-67
2023/03/14 04:14:09;;;;;;;43.53;8.57;;;7.60;99.90;;;;;;5153819;27;20050;-67
2023/03/14 04:16:34;;;;;;;47.92;8.90;;;8.30;99.90;;;;;;5154120;27;20039;-67
2023/03/14 04:19:01;;;;;;;39.47;8.27;;;9.30;99.90;;;;;;5153705;27;20035;-66
2023/03/14 04:21:26;;;;;;;44.70;8.95;;;8.00;99.90;;;;;;5153674;27;20054;-66
2023/03/14 04:23:52;;;;;;;52.28;8.93;;;10.20;99.90;;;;;;5134992;27;20046;-66
2023/03/14 04:26:18;;;;;;;48.45;9.48;;;7.30;99.90;;;;;;5134586;27;20042;-67
2023/03/14 04:28:44;;;;;;;39.90;8.75;;;7.80;99.90;;;;;;5153592;27;20086;-66
2023/03/14 04:31:10;;;;;;;45.38;8.60;;;7.80;99.90;;;;;;5153475;27;20053;-68
2023/03/14 04:33:37;;;;;;;42.90;9.20;;;9.30;99.90;;;;;;5153501;27;20153;-65
2023/03/14 04:36:03;;;;;;;;;;;9.90;99.90;;;;;;5153948;27;20050;-66
2023/03/14 04:38:28;;;;;;;39.47;8.43;;;9.20;99.90;;;;;;5153571;27;19922;-66
2023/03/14 04:40:54;;;;;;;42.78;8.35;;;10.10;99.90;;;;;;5153480;27;20050;-66
2023/03/14 04:43:20;;;;;;;44.25;8.90;;;8.40;99.90;;;;;;5153389;27;20125;-68
2023/03/14 04:45:45;;;;;;;45.83;8.10;;;10.30;99.90;;;;;;5153403;27;20053;-66
2023/03/14 04:48:12;;;;;;;51.55;9.48;;;7.50;99.90;;;;;;5153238;27;20078;-66
2023/03/14 04:50:38;;;;;;;56.72;9.45;;;9.70;99.90;;;;;;5135043;27;20397;-66
2023/03/14 04:53:04;;;;;;;44.70;8.73;;;9.90;99.90;;;;;;5153278;27;20129;-66
2023/03/14 04:55:35;;;;;;;47.55;8.88;;;8.80;99.90;;;;;;5153414;27;20057;-66
2023/03/14 04:58:00;;;;;;;41.78;8.52;;;9.30;99.90;;;;;;5153575;27;20039;-67
2023/03/14 05:00:26;;;;;;;48.63;8.90;;;7.60;99.90;;;;;;5153562;27;20129;-67
2023/03/14 05:02:52;;;;;;;42.25;7.95;;;8.20;99.90;;;;;;5153373;27;20045;-68
2023/03/14 05:05:17;;;;;;;42.80;8.23;;;8.90;99.90;;;;;;5153207;27;20482;-68
2023/03/14 05:07:43;;;;;;;34.05;9.65;;;10.60;99.90;;;;;;5153139;27;20359;-68
2023/03/14 05:10:09;;;;;;;39.72;8.82;;;6.50;99.90;;;;;;5153157;27;20043;-68
2023/03/14 05:12:35;;;;;;;39.38;9.98;;;11.10;99.90;;;;;;5153207;27;20069;-69
2023/03/14 05:15:01;;;;;;;38.80;10.50;;;11.10;99.90;;;;;;5153178;27;20486;-69
2023/03/14 05:17:27;;;;;;;31.23;9.40;;;11.50;99.90;;;;;;5153111;27;20470;-68
2023/03/14 05:19:52;;;;;;;29.55;9.45;;;6.00;99.90;;;;;;5153066;27;20054;-67
2023/03/14 05:22:18;;;;;;;27.08;8.75;;;5.70;99.90;;;;;;5153141;27;20146;-68
2023/03/14 05:24:44;;;;;;;28.25;8.45;;;8.80;99.90;;;;;;5152741;27;20045;-69
2023/03/14 05:27:09;;;;;;;21.90;8.00;;;8.40;99.90;;;;;;5152525;27;20054;-67
2023/03/14 05:29:35;;;;;;;24.50;7.82;;;6.50;99.90;;;;;;5153035;27;20150;-70
2023/03/14 05:32:01;;;;;;;26.10;7.68;;;11.70;99.90;;;;;;5134439;27;20043;-67
2023/03/14 05:34:26;;;;;;;24.45;8.57;;;11.20;99.90;;;;;;5154067;27;20051;-70
2023/03/14 05:36:52;;;;;;;24.48;8.25;;;5.40;99.90;;;;;;5138363;27;20149;-70
2023/03/14 05:39:18;;;;;;;20.80;7.63;;;7.40;99.90;;;;;;5157006;27;20042;-69
2023/03/14 05:41:44;;;;;;;20.02;7.75;;;6.00;99.90;;;;;;5138158;27;20043;-71
2023/03/14 05:44:09;;;;;;;22.83;8.45;;;5.30;99.90;;;;;;5156666;27;20054;-70
2023/03/14 05:46:35;;;;;;;27.38;8.18;;;5.40;99.90;;;;;;5156516;27;20051;-70
2023/03/14 05:49:01;;;;;;;19.88;7.43;;;11.50;99.90;;;;;;5156687;27;20531;-71
2023/03/14 05:51:26;;;;;;;17.65;7.75;;;7.50;99.90;;;;;;5156820;27;20372;-69
2023/03/14 05:53:52;;;;;;;17.40;2.88;;;6.10;99.90;;;;;;5156585;27;20046;-70
2023/03/14 05:56:18;;;;;;;33.03;3.17;;;5.70;99.90;;;;;;5156415;27;20090;-69
2023/03/14 05:58:44;;;;;;;29.80;2.75;;;10.20;99.90;;;;;;5156366;27;20054;-69
2023/03/14 06:01:09;;;;;;;25.45;2.95;;;11.40;99.90;;;;;;5156336;27;20046;-68
2023/03/14 06:03:35;;;;;;;24.75;2.50;;;7.30;99.90;;;;;;5155981;27;20525;-68
2023/03/14 06:06:01;;;;;;;28.42;3.22;;;6.80;99.90;;;;;;5156189;27;20099;-70
2023/03/14 06:08:28;;;;;;;27.98;2.65;;;6.50;99.90;;;;;;5137505;27;20050;-69
2023/03/14 06:10:53;;;;;;;29.88;2.95;;;9.30;99.90;;;;;;5156140;27;20446;-70
2023/03/14 06:13:19;;;;;;;30.73;3.70;;;4.30;99.90;;;;;;5137577;27;20195;-71
2023/03/14 06:15:45;;;;;;;;;;;6.40;99.90;;;;;;5156453;27;20103;-70
2023/03/14 06:18:12;;;;;;;24.58;3.17;;;7.00;99.90;;;;;;5155986;27;20017;-72
2023/03/14 06:20:41;;;;;;;31.65;3.40;;;8.80;99.90;;;;;;5155984;27;20458;-72
2023/03/14 06:23:08;;;;;;;29.30;2.92;;;5.50;99.90;;;;;;5155898;27;20043;-73
2023/03/14 06:25:35;;;;;;;33.30;4.10;;;8.20;99.90;;;;;;5155829;27;20129;-71
2023/03/14 06:28:01;;;;;;;24.20;2.88;;;7.90;99.90;;;;;;5155444;27;20070;-71
2023/03/14 06:30:27;;;;;;;28.23;3.63;;;1.60;99.90;;;;;;5156116;27;20043;-73
2023/03/14 06:32:53;;;;;;;25.25;2.10;;;7.50;99.90;;;;;;5155773;27;20331;-71
2023/03/14 06:35:19;;;;;;;26.10;3.10;;;7.80;99.90;;;;;;5155724;27;20053;-70
2023/03/14 06:37:44;;;;;;;17.90;2.45;;;6.40;99.90;;;;;;5155668;27;20034;-70
2023/03/14 06:40:13;;;;;;;23.48;2.33;;;7.10;99.90;;;;;;5155642;27;20047;-72
2023/03/14 06:42:39;;;;;;;21.88;1.95;;;1.50;99.90;;;;;;5155649;27;20058;-70
2023/03/14 06:45:06;;;;;;;15.40;1.48;;;5.80;99.90;;;;;;5155486;27;20047;-72
2023/03/14 06:47:31;;;;;;;9.45;1.83;;;6.80;99.90;;;;;;5155400;27;20046;-75
2023/03/14 06:49:57;;;;;;;6.88;1.40;;;7.10;99.90;;;;;;5155571;27;20130;-70
2023/03/14 06:52:23;;;;;;;5.63;1.20;;;7.20;99.90;;;;;;5155690;27;20046;-71
2023/03/14 06:54:48;;;;;;;11.30;1.40;;;7.10;99.90;;;;;;5120041;27;20082;-74
2023/03/14 06:57:14;;;;;;;7.40;1.13;;;;;;;;;;5136782;27;20049;-72
2023/03/14 06:59:40;;;;;;;9.15;1.60;;;0.70;99.90;;;;;;5136935;27;20090;-72
2023/03/14 07:02:10;;;;;;;12.10;1.55;;;5.90;99.90;;;;;;5136877;27;20051;-71
2023/03/14 07:04:36;;;;;;;8.63;1.35;;;2.50;99.90;;;;;;5155167;27;20082;-73
2023/03/14 07:07:01;;;;;;;13.20;1.40;;;1.40;99.90;;;;;;5154952;27;20089;-74
2023/03/14 07:09:27;;;;;;;12.45;1.30;;;2.00;99.90;;;;;;5136455;27;20054;-76
2023/03/14 07:11:53;;;;;;;10.70;1.30;;;0.80;99.90;;;;;;5143588;27;20061;-74
2023/03/14 07:14:18;;;;;;;7.47;1.20;;;1.40;99.90;;;;;;5132791;27;20363;-71
2023/03/14 07:16:45;;;;;;;12.32;1.65;;;0.70;99.90;;;;;;5135916;27;20082;-72
2023/03/14 07:19:10;;;;;;;13.98;1.88;;;0.70;99.90;;;;;;5153448;27;20051;-71
2023/03/14 07:21:36;;;;;;;14.30;2.33;;;1.30;99.90;;;;;;5154603;27;20046;-73
2023/03/14 07:24:02;;;;;;;10.00;1.40;;;4.00;99.90;;;;;;5135315;27;20130;-73
2023/03/14 07:26:28;;;;;;;16.35;1.95;;;;;;;;;;5135358;27;20043;-77
2023/03/14 07:28:54;;;;;;;6.97;1.40;;;1.70;99.90;;;;;;5153480;27;20059;-74
2023/03/14 07:31:19;;;;;;;12.95;1.67;;;1.00;99.90;;;;;;5153417;27;20053;-72
2023/03/14 07:33:45;;;;;;;15.25;1.88;;;2.60;99.90;;;;;;5135781;27;20095;-73
2023/03/14 07:36:12;;;;;;;9.07;1.73;;;5.60;99.90;;;;;;5153784;27;20493;-76
2023/03/14 07:38:37;;;;;;;;;;;6.80;99.90;;;;;;5136146;27;20039;-71
2023/03/14 07:41:05;;;;;;;11.60;1.63;;;1.40;99.90;;;;;;5154143;27;19926;-73
2023/03/14 07:43:31;;;;;;;7.13;1.33;;;3.40;99.90;;;;;;5153259;27;20048;-72
2023/03/14 07:45:57;;;;;;;9.18;1.33;;;3.40;99.90;;;;;;5154057;27;20463;-72
2023/03/14 07:48:24;;;;;;;10.60;1.67;;;;;;;;;;5153619;27;20051;-70
2023/03/14 07:50:51;;;;;;;9.52;1.67;;;1.60;99.90;;;;;;5153457;27;20050;-71
2023/03/14 07:53:18;;;;;;;8.30;2.13;;;;;;;;;;5153974;27;20130;-72
2023/03/14 07:55:45;;;;;;;11.32;1.65;;;4.80;99.90;;;;;;5153739;27;20038;-71
2023/03/14 07:58:11;;;;;;;12.70;1.70;;;3.50;99.90;;;;;;5152679;27;20046;-71
2023/03/14 08:00:36;;;;;;;8.50;1.50;;;2.20;99.90;;;;;;5118256;27;20058;-71
2023/03/14 08:03:02;;;;;;;13.90;2.08;;;3.50;99.90;;;;;;5153774;27;20047;-70
2023/03/14 08:05:28;;;;;;;10.45;1.52;;;5.30;99.90;;;;;;5153337;27;20049;-71
2023/03/14 08:07:53;;;;;;;9.32;1.85;;;6.70;99.90;;;;;;5153496;27;20042;-71
2023/03/14 08:10:22;;;;;;;14.20;1.80;;;5.10;99.90;;;;;;5131540;27;20038;-71
2023/03/14 08:12:53;;;;;;;15.52;2.10;;;3.90;99.90;;;;;;5146790;27;20050;-76
2023/03/14 08:15:18;;;;;;;8.70;2.55;;;3.30;99.90;;;;;;5145075;27;20073;-73
2023/03/14 08:17:44;;;;;;;11.20;2.13;;;7.00;99.90;;;;;;5118039;27;20074;-75
2023/03/14 08:20:11;;;;;;;16.40;2.22;;;2.60;99.90;;;;;;5135187;27;20125;-73
2023/03/14 08:22:38;;;;;;;15.15;2.63;;;6.10;99.90;;;;;;5153616;27;20562;-76
2023/03/14 08:25:04;;;;;;;13.98;2.55;;;2.60;99.90;;;;;;5134066;27;20055;-73
2023/03/14 08:27:30;;;;;;;19.40;2.65;;;2.90;99.90;;;;;;5152862;27;20049;-75
2023/03/14 08:29:56;;;;;;;16.23;2.80;;;3.20;99.90;;;;;;5153390;27;20059;-74
2023/03/14 08:32:23;;;;;;;22.60;2.90;;;;;;;;;;5153484;27;20081;-73
2023/03/14 08:34:49;;;;;;;16.33;2.38;;;3.00;99.90;;;;;;5153326;27;20086;-72
2023/03/14 08:37:15;;;;;;;12.70;3.05;;;;;;;;;;5134624;27;20509;-72
2023/03/14 08:39:41;;;;;;;19.13;3.55;;;4.00;99.90;;;;;;5134615;27;20558;-78
2023/03/14 08:42:07;;;;;;;27.13;2.90;;;6.40;99.90;;;;;;5150916;27;20134;-76
2023/03/14 08:44:32;;;;;;;23.30;4.15;;;7.20;99.90;;;;;;5099237;27;20046;-70
2023/03/14 08:46:58;;;;;;;26.20;3.85;;;7.00;99.90;;;;;;5144355;27;20039;-73
2023/03/14 08:49:24;;;;;;;18.70;3.92;;;6.90;99.90;;;;;;5140239;27;20047;-74
2023/03/14 08:51:49;;;;;;;28.80;4.13;;;6.80;99.90;;;;;;5096798;28;20671;-73
2023/03/14 08:54:15;;;;;;;28.70;3.92;;;4.60;99.90;;;;;;5132200;27;20043;-70
2023/03/14 08:56:41;;;;;;;28.73;3.92;;;3.60;99.90;;;;;;5149136;27;20047;-72
2023/03/14 08:59:07;;;;;;;29.83;3.47;;;5.20;99.90;;;;;;5153245;27;20446;-72
2023/03/14 09:01:33;;;;;;;37.22;3.88;;;6.90;99.90;;;;;;5134954;27;20046;-72
2023/03/14 09:03:59;;;;;;;26.13;4.57;;;3.60;99.90;;;;;;5153337;27;20379;-75
2023/03/14 09:06:25;;;;;;;20.40;4.43;;;5.60;99.90;;;;;;5117797;27;20042;-71
2023/03/14 09:08:51;;;;;;;29.42;3.42;;;5.80;99.90;;;;;;5153550;27;20386;-70
2023/03/14 09:11:18;;;;;;;26.08;3.75;;;5.40;99.90;;;;;;5156893;27;20046;-72
2023/03/14 09:13:44;;;;;;;23.98;3.42;;;7.10;99.90;;;;;;5138556;27;20348;-73
2023/03/14 09:16:10;;;;;;;22.52;3.70;;;4.30;99.90;;;;;;5138427;27;20049;-71
2023/03/14 09:18:36;;;;;;;20.90;4.22;;;4.40;99.90;;;;;;5157167;27;20122;-72
2023/03/14 09:21:02;;;;;;;26.92;3.67;;;5.90;99.90;;;;;;5156786;27;20045;-70
2023/03/14 09:23:28;;;;;;;22.98;3.90;;;5.40;99.90;;;;;;5157129;27;20057;-71
2023/03/14 09:25:55;;;;;;;23.02;4.63;;;5.20;99.90;;;;;;5138708;27;20055;-71
2023/03/14 09:28:21;;;;;;;31.58;3.97;;;4.60;99.90;;;;;;5156709;27;20066;-70
2023/03/14 09:30:47;;;;;;;21.08;4.22;;;5.40;99.90;;;;;;5156649;27;20054;-73
2023/03/14 09:33:13;;;;;;;34.72;4.78;;;5.40;99.90;;;;;;5121223;27;20042;-72
2023/03/14 09:35:38;;;;;;;20.08;3.08;;;5.20;99.90;;;;;;5137945;27;20050;-72
2023/03/14 09:38:05;;;;;;;23.30;3.70;;;4.70;99.90;;;;;;5121222;27;20039;-71
2023/03/14 09:40:37;;;;;;;26.63;4.22;;;5.40;99.90;;;;;;5156774;27;20058;-71
2023/03/14 09:43:03;;;;;;;25.58;4.45;;;5.90;99.90;;;;;;5138256;27;20049;-70
2023/03/14 09:45:36;;;;;;;34.92;5.13;;;6.10;99.90;;;;;;5156772;27;20046;-70
2023/03/14 09:48:03;;;;;;;21.52;3.90;;;6.00;99.90;;;;;;5156656;27;20046;-71
2023/03/14 09:50:59;;;;;;;24.92;4.15;;;;;;;;;;5156559;27;20050;-71
2023/03/14 09:53:39;;;;;;;24.80;4.35;;;6.30;99.90;;;;;;5134287;27;20061;-70
2023/03/14 09:56:20;;;;;;;22.02;3.58;;;6.20;99.90;;;;;;5138220;27;20039;-70
2023/03/14 09:59:16;;;;;;;26.73;4.25;;;6.50;99.90;;;;;;5156389;27;20042;-70
2023/03/14 10:01:42;;;;;;;22.08;3.30;;;6.30;99.90;;;;;;5152116;27;20130;-70
2023/03/14 10:04:15;;;;;;;15.80;3.17;;;6.50;99.90;;;;;;5156328;27;20129;-70
2023/03/14 10:06:41;;;;;;;16.30;2.85;;;6.30;99.90;;;;;;5156196;27;20042;-73
2023/03/14 10:09:17;;;;;;;17.98;3.33;;;6.60;99.90;;;;;;5156159;27;20509;-73
2023/03/14 10:11:42;;;;;;;18.08;3.25;;;7.00;99.90;;;;;;5156228;27;20122;-70
2023/03/14 10:14:13;;;;;;;16.63;3.17;;;7.00;99.90;;;;;;5156085;27;20227;-71
2023/03/14 10:16:44;;;;;;;16.73;3.20;;;6.90;99.90;;;;;;5156136;27;20050;-74
2023/03/14 10:19:14;;;;;;;22.38;3.33;;;6.60;99.90;;;;;;5155968;27;20053;-69
2023/03/14 10:21:49;;;;;;;27.08;3.35;;;6.70;99.90;;;;;;5137272;27;20142;-69
2023/03/14 10:24:34;;;;;;;22.98;4.05;;;7.00;99.90;;;;;;5155979;27;20045;-69
2023/03/14 10:27:08;;;;;;;19.17;2.97;;;6.40;99.90;;;;;;5137509;27;20047;-73
2023/03/14 10:29:50;;;;;;;23.13;3.03;;;6.90;99.90;;;;;;5156116;27;20407;-70
2023/03/14 10:32:20;;;;;;;19.15;3.45;;;6.50;99.90;;;;;;5156193;27;20043;-70
2023/03/14 10:35:19;;;;;;;11.48;2.33;;;6.70;99.90;;;;;;5155725;27;20453;-69
2023/03/14 10:38:04;;;;;;;8.15;1.83;;;6.90;99.90;;;;;;5137327;27;20493;-70
2023/03/14 10:40:52;;;;;;;13.35;2.13;;;6.80;99.90;;;;;;5155709;27;20047;-69
2023/03/14 10:43:38;;;;;;;11.30;2.17;;;6.50;99.90;;;;;;5155559;27;20119;-68
2023/03/14 10:46:18;;;;;;;11.15;1.90;;;6.70;99.90;;;;;;5136948;27;20055;-74
2023/03/14 10:48:45;;;;;;;15.43;2.65;;;7.20;99.90;;;;;;5136862;27;20074;-70
2023/03/14 10:51:17;;;;;;;14.95;2.38;;;6.80;99.90;;;;;;5155076;27;20492;-70
2023/03/14 10:53:48;;;;;;;13.85;2.63;;;6.80;99.90;;;;;;5155293;27;20050;-72
2023/03/14 10:56:19;;;;;;;10.18;1.88;;;6.70;99.90;;;;;;5155239;27;20042;-71
2023/03/14 10:58:47;;;;;;;15.15;1.98;;;6.30;99.90;;;;;;5155338;27;20047;-69
2023/03/14 11:01:32;;;;;;;5.72;1.50;;;7.70;99.90;;;;;;5155232;27;20125;-70
2023/03/14 11:04:20;;;;;;;8.82;1.88;;;6.40;99.90;;;;;;5155121;27;20039;-69
2023/03/14 11:07:04;;;;;;;11.23;2.72;;;6.90;99.90;;;;;;5155050;27;20451;-71
2023/03/14 11:09:34;;;;;;;9.57;1.95;;;;;;;;;;5135187;27;20501;-71
2023/03/14 11:12:31;;;;;;;6.25;1.65;;;6.50;99.90;;;;;;5153107;27;20171;-72
2023/03/14 11:15:21;;;;;;;13.27;1.77;;;6.80;99.90;;;;;;5136547;27;20483;-70
2023/03/14 11:18:23;;;;;;;8.43;1.70;;;6.80;99.90;;;;;;5119336;27;20054;-69
2023/03/14 11:21:16;;;;;;;11.43;1.77;;;6.70;99.90;;;;;;5115538;27;20050;-69
2023/03/14 11:24:18;;;;;;;9.35;1.88;;;6.90;99.90;;;;;;5154720;27;20043;-72
2023/03/14 11:27:05;;;;;;;11.82;1.92;;;7.00;99.90;;;;;;5154604;27;20053;-74
2023/03/14 11:29:30;;;;;;;8.85;1.55;;;7.10;99.90;;;;;;5101992;27;20051;-71
2023/03/14 11:32:01;;;;;;;10.00;1.73;;;7.20;99.90;;;;;;5153788;27;20051;-70
2023/03/14 11:34:52;;;;;;;9.90;1.80;;;7.30;99.90;;;;;;5154586;27;20469;-69
2023/03/14 11:37:32;;;;;;;11.27;2.10;;;7.40;99.90;;;;;;5154532;27;20187;-72
2023/03/14 11:40:22;;;;;;;11.10;2.38;;;7.50;99.90;;;;;;5154188;27;20592;-71
2023/03/14 11:43:14;;;;;;;14.45;1.85;;;7.40;99.90;;;;;;5106161;27;20059;-70
2023/03/14 11:45:43;;;;;;;13.45;2.60;;;7.20;99.90;;;;;;5153498;27;20421;-69
2023/03/14 11:48:14;;;;;;;13.38;2.22;;;7.50;99.90;;;;;;5154177;27;20046;-73
2023/03/14 11:50:42;;;;;;;19.30;2.55;;;7.40;99.90;;;;;;5154313;27;20055;-73
2023/03/14 11:53:47;;;;;;;10.68;2.05;;;7.60;99.90;;;;;;5154121;27;20042;-72
2023/03/14 11:56:24;;;;;;;17.45;2.60;;;7.60;99.90;;;;;;5069730;27;20050;-69
2023/03/14 11:58:57;;;;;;;10.98;1.60;;;7.60;99.90;;;;;;5154103;27;20038;-78
2023/03/14 12:01:31;;;;;;;13.68;2.20;;;7.20;99.90;;;;;;5154030;27;20130;-69
2023/03/14 12:04:05;;;;;;;12.18;2.90;;;7.30;99.90;;;;;;5153957;27;20054;-73
2023/03/14 12:06:49;;;;;;;11.32;2.58;;;7.60;99.90;;;;;;5153944;27;20051;-71
2023/03/14 12:09:18;;;;;;;8.02;2.60;;;7.40;99.90;;;;;;5153955;27;20402;-74
2023/03/14 12:11:59;;;;;;;10.25;2.40;;;7.20;99.90;;;;;;5135607;27;20047;-72
2023/03/14 12:14:34;;;;;;;14.13;2.47;;;7.40;99.90;;;;;;5153998;27;20054;-69
2023/03/14 12:17:22;;;;;;;13.13;2.47;;;7.20;99.90;;;;;;5153914;27;20529;-70
2023/03/14 12:20:06;;;;;;;20.52;2.88;;;7.00;99.90;;;;;;5153854;27;20050;-70
2023/03/14 12:22:44;;;;;;;13.55;2.40;;;7.30;99.90;;;;;;5153927;27;20539;-70
2023/03/14 12:25:15;;;;;;;13.45;2.25;;;7.10;99.90;;;;;;5153923;27;20043;-70
2023/03/14 12:27:47;;;;;;;5.82;1.90;;;7.60;99.90;;;;;;5153425;27;20054;-71
2023/03/14 12:30:28;;;;;;;11.40;2.33;;;7.20;99.90;;;;;;5153901;27;20119;-70
2023/03/14 12:33:09;;;;;;;12.95;3.22;;;6.90;99.90;;;;;;5153765;27;20103;-69
2023/03/14 12:35:39;;;;;;;5.55;1.75;;;7.00;99.90;;;;;;5153651;27;20494;-70
2023/03/14 12:38:12;;;;;;;9.23;1.60;;;6.60;99.90;;;;;;5153656;27;20061;-69
2023/03/14 12:40:48;;;;;;;6.00;1.35;;;6.60;99.90;;;;;;5153638;27;20049;-68
2023/03/14 12:43:28;;;;;;;9.88;1.65;;;6.90;99.90;;;;;;5136329;27;20054;-69
2023/03/14 12:46:27;;;;;;;5.22;1.27;;;6.90;99.90;;;;;;5157857;27;20068;-69
2023/03/14 12:49:02;;;;;;;7.82;1.50;;;7.10;99.90;;;;;;5137925;27;20070;-76
2023/03/14 12:51:45;;;;;;;8.30;2.17;;;8.00;99.90;;;;;;5157772;27;20046;-70
2023/03/14 12:54:26;;;;;;;9.02;1.77;;;7.20;99.90;;;;;;5157797;27;20046;-72
2023/03/14 12:57:32;;;;;;;12.60;1.85;;;7.10;99.90;;;;;;5157735;27;20125;-71
2023/03/14 13:00:22;;;;;;;4.80;1.90;;;7.20;99.90;;;;;;5139306;27;20050;-72
2023/03/14 13:02:49;;;;;;;8.30;1.73;;;7.40;99.90;;;;;;5156448;27;20190;-69